sensor_id;sensor_type;location;lat;lon;timestamp;P1;durP1;ratioP1;P2;durP2;ratioP2
22131;SDS011;11232;51.748;19.390;2023-05-09T00:01:58;15.90;;;8.77;;
22131;SDS011;11232;51.748;19.390;2023-05-09T00:04:24;15.23;;;8.23;;
22131;SDS011;11232;51.748;19.390;2023-05-09T00:06:50;13.20;;;8.20;;
22131;SDS011;11232;51.748;19.390;2023-05-09T00:09:16;15.50;;;8.00;;
22131;SDS011;11232;51.748;19.390;2023-05-09T00:11:42;12.43;;;7.27;;
22131;SDS011;11232;51.748;19.390;2023-05-09T00:14:09;18.23;;;8.27;;
22131;SDS011;11232;51.748;19.390;2023-05-09T00:16:38;13.43;;;7.33;;
22131;SDS011;11232;51.748;19.390;2023-05-09T00:19:04;14.90;;;7.37;;
22131;SDS011;11232;51.748;19.390;2023-05-09T00:21:31;12.00;;;7.57;;
22131;SDS011;11232;51.748;19.390;2023-05-09T00:23:58;13.27;;;7.70;;
22131;SDS011;11232;51.748;19.390;2023-05-09T00:26:25;10.83;;;6.53;;
22131;SDS011;11232;51.748;19.390;2023-05-09T00:28:51;12.03;;;6.90;;
22131;SDS011;11232;51.748;19.390;2023-05-09T00:31:17;16.80;;;8.23;;
22131;SDS011;11232;51.748;19.390;2023-05-09T00:33:43;11.63;;;8.00;;
22131;SDS011;11232;51.748;19.390;2023-05-09T00:36:09;16.33;;;8.77;;
22131;SDS011;11232;51.748;19.390;2023-05-09T00:38:35;14.07;;;8.43;;
22131;SDS011;11232;51.748;19.390;2023-05-09T00:41:01;17.93;;;8.63;;
22131;SDS011;11232;51.748;19.390;2023-05-09T00:43:26;12.30;;;7.83;;
22131;SDS011;11232;51.748;19.390;2023-05-09T00:45:52;13.43;;;8.20;;
22131;SDS011;11232;51.748;19.390;2023-05-09T00:48:18;9.73;;;6.67;;
22131;SDS011;11232;51.748;19.390;2023-05-09T00:50:46;10.60;;;7.10;;
22131;SDS011;11232;51.748;19.390;2023-05-09T00:53:16;12.87;;;7.10;;
22131;SDS011;11232;51.748;19.390;2023-05-09T00:55:42;11.80;;;6.73;;
22131;SDS011;11232;51.748;19.390;2023-05-09T00:58:09;13.67;;;6.20;;
22131;SDS011;11232;51.748;19.390;2023-05-09T01:00:35;11.23;;;6.77;;
22131;SDS011;11232;51.748;19.390;2023-05-09T01:03:01;10.07;;;6.23;;
22131;SDS011;11232;51.748;19.390;2023-05-09T01:05:37;11.67;;;6.53;;
22131;SDS011;11232;51.748;19.390;2023-05-09T01:08:27;14.70;;;6.43;;
22131;SDS011;11232;51.748;19.390;2023-05-09T01:11:30;11.70;;;5.83;;
22131;SDS011;11232;51.748;19.390;2023-05-09T01:13:56;10.07;;;6.03;;
22131;SDS011;11232;51.748;19.390;2023-05-09T01:21:31;11.17;;;6.07;;
22131;SDS011;11232;51.748;19.390;2023-05-09T01:24:10;10.57;;;6.37;;
22131;SDS011;11232;51.748;19.390;2023-05-09T01:29:26;11.10;;;6.20;;
22131;SDS011;11232;51.748;19.390;2023-05-09T01:31:56;13.07;;;6.70;;
22131;SDS011;11232;51.748;19.390;2023-05-09T01:34:24;12.57;;;5.80;;
22131;SDS011;11232;51.748;19.390;2023-05-09T01:36:51;11.10;;;5.93;;
22131;SDS011;11232;51.748;19.390;2023-05-09T01:39:19;12.83;;;5.97;;
22131;SDS011;11232;51.748;19.390;2023-05-09T01:41:46;18.30;;;5.93;;
22131;SDS011;11232;51.748;19.390;2023-05-09T01:44:13;10.00;;;5.80;;
22131;SDS011;11232;51.748;19.390;2023-05-09T01:46:39;15.10;;;6.57;;
22131;SDS011;11232;51.748;19.390;2023-05-09T01:49:06;12.67;;;6.43;;
22131;SDS011;11232;51.748;19.390;2023-05-09T01:51:33;8.63;;;5.87;;
22131;SDS011;11232;51.748;19.390;2023-05-09T01:54:01;9.47;;;6.03;;
22131;SDS011;11232;51.748;19.390;2023-05-09T01:56:28;12.13;;;5.70;;
22131;SDS011;11232;51.748;19.390;2023-05-09T01:58:55;9.87;;;5.80;;
22131;SDS011;11232;51.748;19.390;2023-05-09T02:01:22;10.97;;;6.10;;
22131;SDS011;11232;51.748;19.390;2023-05-09T02:03:49;10.17;;;5.70;;
22131;SDS011;11232;51.748;19.390;2023-05-09T02:06:19;11.50;;;6.17;;
22131;SDS011;11232;51.748;19.390;2023-05-09T02:08:45;10.40;;;5.80;;
22131;SDS011;11232;51.748;19.390;2023-05-09T02:11:12;9.00;;;5.60;;
22131;SDS011;11232;51.748;19.390;2023-05-09T02:13:38;9.30;;;5.23;;
22131;SDS011;11232;51.748;19.390;2023-05-09T02:16:04;9.27;;;5.57;;
22131;SDS011;11232;51.748;19.390;2023-05-09T02:18:32;13.37;;;6.20;;
22131;SDS011;11232;51.748;19.390;2023-05-09T02:20:58;11.57;;;6.57;;
22131;SDS011;11232;51.748;19.390;2023-05-09T02:23:24;9.47;;;5.73;;
22131;SDS011;11232;51.748;19.390;2023-05-09T02:25:50;7.63;;;5.43;;
22131;SDS011;11232;51.748;19.390;2023-05-09T02:28:18;12.90;;;6.10;;
22131;SDS011;11232;51.748;19.390;2023-05-09T02:30:45;9.27;;;5.43;;
22131;SDS011;11232;51.748;19.390;2023-05-09T02:33:12;7.77;;;4.70;;
22131;SDS011;11232;51.748;19.390;2023-05-09T02:35:38;8.23;;;5.47;;
22131;SDS011;11232;51.748;19.390;2023-05-09T02:38:05;8.97;;;5.90;;
22131;SDS011;11232;51.748;19.390;2023-05-09T02:40:31;12.63;;;6.27;;
22131;SDS011;11232;51.748;19.390;2023-05-09T02:42:58;13.37;;;7.13;;
22131;SDS011;11232;51.748;19.390;2023-05-09T02:45:24;12.73;;;6.47;;
22131;SDS011;11232;51.748;19.390;2023-05-09T02:47:50;14.57;;;6.47;;
22131;SDS011;11232;51.748;19.390;2023-05-09T02:50:16;16.03;;;6.23;;
22131;SDS011;11232;51.748;19.390;2023-05-09T02:52:42;13.60;;;6.20;;
22131;SDS011;11232;51.748;19.390;2023-05-09T02:55:08;13.87;;;7.57;;
22131;SDS011;11232;51.748;19.390;2023-05-09T02:57:34;11.80;;;6.40;;
22131;SDS011;11232;51.748;19.390;2023-05-09T03:00:00;12.40;;;6.57;;
22131;SDS011;11232;51.748;19.390;2023-05-09T03:02:26;13.27;;;6.30;;
22131;SDS011;11232;51.748;19.390;2023-05-09T03:04:52;10.47;;;6.53;;
22131;SDS011;11232;51.748;19.390;2023-05-09T03:07:18;13.63;;;6.33;;
22131;SDS011;11232;51.748;19.390;2023-05-09T03:09:44;11.97;;;6.13;;
22131;SDS011;11232;51.748;19.390;2023-05-09T03:12:10;15.93;;;6.70;;
22131;SDS011;11232;51.748;19.390;2023-05-09T03:14:36;12.60;;;7.13;;
22131;SDS011;11232;51.748;19.390;2023-05-09T03:17:02;14.23;;;6.60;;
22131;SDS011;11232;51.748;19.390;2023-05-09T03:19:28;16.13;;;6.50;;
22131;SDS011;11232;51.748;19.390;2023-05-09T03:21:54;9.83;;;6.53;;
22131;SDS011;11232;51.748;19.390;2023-05-09T03:24:20;11.97;;;6.53;;
22131;SDS011;11232;51.748;19.390;2023-05-09T03:26:47;14.03;;;7.47;;
22131;SDS011;11232;51.748;19.390;2023-05-09T03:29:13;11.90;;;6.43;;
22131;SDS011;11232;51.748;19.390;2023-05-09T03:31:39;14.17;;;6.70;;
22131;SDS011;11232;51.748;19.390;2023-05-09T03:34:04;10.47;;;6.43;;
22131;SDS011;11232;51.748;19.390;2023-05-09T03:36:30;15.00;;;6.70;;
22131;SDS011;11232;51.748;19.390;2023-05-09T03:38:57;13.23;;;6.50;;
22131;SDS011;11232;51.748;19.390;2023-05-09T03:41:23;11.73;;;6.70;;
22131;SDS011;11232;51.748;19.390;2023-05-09T03:43:49;11.97;;;6.90;;
22131;SDS011;11232;51.748;19.390;2023-05-09T03:46:14;13.50;;;6.47;;
22131;SDS011;11232;51.748;19.390;2023-05-09T03:48:40;12.10;;;6.57;;
22131;SDS011;11232;51.748;19.390;2023-05-09T03:51:06;11.13;;;6.60;;
22131;SDS011;11232;51.748;19.390;2023-05-09T03:53:32;13.57;;;6.77;;
22131;SDS011;11232;51.748;19.390;2023-05-09T03:55:58;14.97;;;7.27;;
22131;SDS011;11232;51.748;19.390;2023-05-09T03:58:24;14.93;;;7.33;;
22131;SDS011;11232;51.748;19.390;2023-05-09T04:00:50;15.30;;;7.70;;
22131;SDS011;11232;51.748;19.390;2023-05-09T04:03:17;18.30;;;8.07;;
22131;SDS011;11232;51.748;19.390;2023-05-09T04:05:43;10.77;;;6.70;;
22131;SDS011;11232;51.748;19.390;2023-05-09T04:08:09;17.00;;;7.60;;
22131;SDS011;11232;51.748;19.390;2023-05-09T04:10:35;13.43;;;8.33;;
22131;SDS011;11232;51.748;19.390;2023-05-09T04:13:01;13.63;;;7.70;;
22131;SDS011;11232;51.748;19.390;2023-05-09T04:15:27;14.03;;;7.57;;
22131;SDS011;11232;51.748;19.390;2023-05-09T04:17:53;16.27;;;7.90;;
22131;SDS011;11232;51.748;19.390;2023-05-09T04:20:19;16.63;;;8.10;;
22131;SDS011;11232;51.748;19.390;2023-05-09T04:22:45;14.13;;;8.10;;
22131;SDS011;11232;51.748;19.390;2023-05-09T04:25:11;14.27;;;7.83;;
22131;SDS011;11232;51.748;19.390;2023-05-09T04:27:38;14.60;;;8.40;;
22131;SDS011;11232;51.748;19.390;2023-05-09T04:30:04;13.40;;;7.87;;
22131;SDS011;11232;51.748;19.390;2023-05-09T04:32:31;14.30;;;8.30;;
22131;SDS011;11232;51.748;19.390;2023-05-09T04:34:57;14.70;;;7.80;;
22131;SDS011;11232;51.748;19.390;2023-05-09T04:37:23;13.93;;;7.30;;
22131;SDS011;11232;51.748;19.390;2023-05-09T04:39:50;14.27;;;7.83;;
22131;SDS011;11232;51.748;19.390;2023-05-09T04:42:16;13.27;;;8.20;;
22131;SDS011;11232;51.748;19.390;2023-05-09T04:44:41;16.97;;;7.60;;
22131;SDS011;11232;51.748;19.390;2023-05-09T04:47:07;14.77;;;7.37;;
22131;SDS011;11232;51.748;19.390;2023-05-09T04:49:33;13.07;;;7.10;;
22131;SDS011;11232;51.748;19.390;2023-05-09T04:51:59;16.47;;;7.77;;
22131;SDS011;11232;51.748;19.390;2023-05-09T04:54:25;12.50;;;6.87;;
22131;SDS011;11232;51.748;19.390;2023-05-09T04:56:51;42.10;;;21.30;;
22131;SDS011;11232;51.748;19.390;2023-05-09T04:59:17;20.23;;;12.50;;
22131;SDS011;11232;51.748;19.390;2023-05-09T05:01:43;13.63;;;7.17;;
22131;SDS011;11232;51.748;19.390;2023-05-09T05:04:09;11.27;;;7.13;;
22131;SDS011;11232;51.748;19.390;2023-05-09T05:06:35;15.23;;;7.17;;
22131;SDS011;11232;51.748;19.390;2023-05-09T05:09:01;12.73;;;6.47;;
22131;SDS011;11232;51.748;19.390;2023-05-09T05:11:27;11.90;;;7.47;;
22131;SDS011;11232;51.748;19.390;2023-05-09T05:13:53;14.33;;;6.43;;
22131;SDS011;11232;51.748;19.390;2023-05-09T05:16:19;14.40;;;7.10;;
22131;SDS011;11232;51.748;19.390;2023-05-09T05:18:45;10.87;;;5.83;;
22131;SDS011;11232;51.748;19.390;2023-05-09T05:21:11;9.63;;;5.87;;
22131;SDS011;11232;51.748;19.390;2023-05-09T05:23:37;12.13;;;6.03;;
22131;SDS011;11232;51.748;19.390;2023-05-09T05:26:03;9.53;;;5.43;;
22131;SDS011;11232;51.748;19.390;2023-05-09T05:28:29;24.73;;;13.20;;
22131;SDS011;11232;51.748;19.390;2023-05-09T05:30:55;10.00;;;5.60;;
22131;SDS011;11232;51.748;19.390;2023-05-09T05:33:21;9.63;;;5.50;;
22131;SDS011;11232;51.748;19.390;2023-05-09T05:35:47;11.07;;;5.47;;
22131;SDS011;11232;51.748;19.390;2023-05-09T05:38:13;8.57;;;5.27;;
22131;SDS011;11232;51.748;19.390;2023-05-09T05:40:39;8.33;;;5.10;;
22131;SDS011;11232;51.748;19.390;2023-05-09T05:43:05;10.27;;;5.17;;
22131;SDS011;11232;51.748;19.390;2023-05-09T05:45:31;9.73;;;5.30;;
22131;SDS011;11232;51.748;19.390;2023-05-09T05:47:57;10.73;;;4.53;;
22131;SDS011;11232;51.748;19.390;2023-05-09T05:50:23;7.67;;;4.30;;
22131;SDS011;11232;51.748;19.390;2023-05-09T05:52:49;8.30;;;4.47;;
22131;SDS011;11232;51.748;19.390;2023-05-09T05:55:15;8.33;;;4.53;;
22131;SDS011;11232;51.748;19.390;2023-05-09T05:57:41;10.37;;;4.27;;
22131;SDS011;11232;51.748;19.390;2023-05-09T06:00:07;6.53;;;4.07;;
22131;SDS011;11232;51.748;19.390;2023-05-09T06:02:40;7.43;;;4.17;;
22131;SDS011;11232;51.748;19.390;2023-05-09T06:05:07;9.33;;;3.80;;
22131;SDS011;11232;51.748;19.390;2023-05-09T06:07:33;7.13;;;3.93;;
22131;SDS011;11232;51.748;19.390;2023-05-09T06:09:59;9.83;;;4.10;;
22131;SDS011;11232;51.748;19.390;2023-05-09T06:12:25;8.20;;;3.80;;
22131;SDS011;11232;51.748;19.390;2023-05-09T06:14:51;5.13;;;3.43;;
22131;SDS011;11232;51.748;19.390;2023-05-09T06:17:17;6.93;;;3.90;;
22131;SDS011;11232;51.748;19.390;2023-05-09T06:19:43;5.90;;;3.37;;
22131;SDS011;11232;51.748;19.390;2023-05-09T06:22:09;12.17;;;6.30;;
22131;SDS011;11232;51.748;19.390;2023-05-09T06:24:35;5.90;;;3.30;;
22131;SDS011;11232;51.748;19.390;2023-05-09T06:27:01;7.03;;;3.50;;
22131;SDS011;11232;51.748;19.390;2023-05-09T06:29:27;4.17;;;2.90;;
22131;SDS011;11232;51.748;19.390;2023-05-09T06:31:53;6.87;;;3.30;;
22131;SDS011;11232;51.748;19.390;2023-05-09T06:34:20;4.90;;;3.77;;
22131;SDS011;11232;51.748;19.390;2023-05-09T06:36:46;8.33;;;3.40;;
22131;SDS011;11232;51.748;19.390;2023-05-09T06:39:12;6.20;;;3.10;;
22131;SDS011;11232;51.748;19.390;2023-05-09T06:41:38;7.43;;;3.30;;
22131;SDS011;11232;51.748;19.390;2023-05-09T06:44:04;6.07;;;3.57;;
22131;SDS011;11232;51.748;19.390;2023-05-09T06:46:31;6.03;;;3.70;;
22131;SDS011;11232;51.748;19.390;2023-05-09T06:48:57;6.73;;;3.37;;
22131;SDS011;11232;51.748;19.390;2023-05-09T06:51:25;5.60;;;3.75;;
22131;SDS011;11232;51.748;19.390;2023-05-09T06:53:51;5.00;;;3.40;;
22131;SDS011;11232;51.748;19.390;2023-05-09T06:56:18;5.70;;;3.13;;
22131;SDS011;11232;51.748;19.390;2023-05-09T06:58:46;10.88;;;4.68;;
22131;SDS011;11232;51.748;19.390;2023-05-09T07:01:12;4.05;;;2.97;;
22131;SDS011;11232;51.748;19.390;2023-05-09T07:03:38;4.22;;;3.08;;
22131;SDS011;11232;51.748;19.390;2023-05-09T07:06:04;6.93;;;3.00;;
22131;SDS011;11232;51.748;19.390;2023-05-09T07:08:31;3.78;;;2.85;;
22131;SDS011;11232;51.748;19.390;2023-05-09T07:10:57;4.47;;;3.10;;
22131;SDS011;11232;51.748;19.390;2023-05-09T07:13:22;3.88;;;2.85;;
22131;SDS011;11232;51.748;19.390;2023-05-09T07:15:48;4.32;;;2.70;;
22131;SDS011;11232;51.748;19.390;2023-05-09T07:18:14;6.18;;;3.00;;
22131;SDS011;11232;51.748;19.390;2023-05-09T07:20:40;5.45;;;2.88;;
22131;SDS011;11232;51.748;19.390;2023-05-09T07:23:06;5.95;;;2.67;;
22131;SDS011;11232;51.748;19.390;2023-05-09T07:25:32;6.03;;;2.90;;
22131;SDS011;11232;51.748;19.390;2023-05-09T07:27:58;10.02;;;2.65;;
22131;SDS011;11232;51.748;19.390;2023-05-09T07:30:24;3.22;;;2.42;;
22131;SDS011;11232;51.748;19.390;2023-05-09T07:32:51;6.07;;;2.72;;
22131;SDS011;11232;51.748;19.390;2023-05-09T07:35:17;4.13;;;2.67;;
22131;SDS011;11232;51.748;19.390;2023-05-09T07:37:43;4.93;;;2.70;;
22131;SDS011;11232;51.748;19.390;2023-05-09T07:40:09;4.07;;;2.60;;
22131;SDS011;11232;51.748;19.390;2023-05-09T07:42:35;3.13;;;2.28;;
22131;SDS011;11232;51.748;19.390;2023-05-09T07:45:02;4.45;;;2.20;;
22131;SDS011;11232;51.748;19.390;2023-05-09T07:47:30;5.00;;;2.40;;
22131;SDS011;11232;51.748;19.390;2023-05-09T07:49:56;3.53;;;2.47;;
22131;SDS011;11232;51.748;19.390;2023-05-09T07:52:22;3.20;;;2.15;;
22131;SDS011;11232;51.748;19.390;2023-05-09T07:54:48;6.05;;;2.47;;
22131;SDS011;11232;51.748;19.390;2023-05-09T07:57:14;6.70;;;4.68;;
22131;SDS011;11232;51.748;19.390;2023-05-09T07:59:40;21.73;;;17.30;;
22131;SDS011;11232;51.748;19.390;2023-05-09T08:02:07;6.43;;;2.35;;
22131;SDS011;11232;51.748;19.390;2023-05-09T08:04:33;5.72;;;2.55;;
22131;SDS011;11232;51.748;19.390;2023-05-09T08:07:02;5.25;;;2.20;;
22131;SDS011;11232;51.748;19.390;2023-05-09T08:09:28;3.22;;;2.50;;
22131;SDS011;11232;51.748;19.390;2023-05-09T08:11:54;3.30;;;2.63;;
22131;SDS011;11232;51.748;19.390;2023-05-09T08:14:20;4.35;;;2.90;;
22131;SDS011;11232;51.748;19.390;2023-05-09T08:16:46;5.00;;;2.70;;
22131;SDS011;11232;51.748;19.390;2023-05-09T08:19:12;3.05;;;2.60;;
22131;SDS011;11232;51.748;19.390;2023-05-09T08:21:39;6.13;;;2.75;;
22131;SDS011;11232;51.748;19.390;2023-05-09T08:24:05;4.32;;;2.63;;
22131;SDS011;11232;51.748;19.390;2023-05-09T08:26:32;4.50;;;2.60;;
22131;SDS011;11232;51.748;19.390;2023-05-09T08:28:59;3.03;;;2.40;;
22131;SDS011;11232;51.748;19.390;2023-05-09T08:31:25;6.45;;;2.60;;
22131;SDS011;11232;51.748;19.390;2023-05-09T08:33:51;3.65;;;2.42;;
22131;SDS011;11232;51.748;19.390;2023-05-09T08:36:17;3.30;;;2.35;;
22131;SDS011;11232;51.748;19.390;2023-05-09T08:38:43;4.93;;;2.63;;
22131;SDS011;11232;51.748;19.390;2023-05-09T08:41:09;3.60;;;2.15;;
22131;SDS011;11232;51.748;19.390;2023-05-09T08:43:35;7.78;;;2.92;;
22131;SDS011;11232;51.748;19.390;2023-05-09T08:46:05;6.88;;;3.38;;
22131;SDS011;11232;51.748;19.390;2023-05-09T08:48:33;4.25;;;2.38;;
22131;SDS011;11232;51.748;19.390;2023-05-09T08:51:01;3.08;;;2.50;;
22131;SDS011;11232;51.748;19.390;2023-05-09T08:53:27;4.88;;;2.78;;
22131;SDS011;11232;51.748;19.390;2023-05-09T08:55:53;3.42;;;2.33;;
22131;SDS011;11232;51.748;19.390;2023-05-09T08:58:19;4.75;;;2.53;;
22131;SDS011;11232;51.748;19.390;2023-05-09T09:00:46;3.83;;;2.92;;
22131;SDS011;11232;51.748;19.390;2023-05-09T09:03:14;3.42;;;2.40;;
22131;SDS011;11232;51.748;19.390;2023-05-09T09:05:41;3.45;;;3.05;;
22131;SDS011;11232;51.748;19.390;2023-05-09T09:08:08;7.13;;;2.55;;
22131;SDS011;11232;51.748;19.390;2023-05-09T09:10:38;3.65;;;2.33;;
22131;SDS011;11232;51.748;19.390;2023-05-09T09:13:11;4.10;;;2.28;;
22131;SDS011;11232;51.748;19.390;2023-05-09T09:15:37;8.15;;;2.72;;
22131;SDS011;11232;51.748;19.390;2023-05-09T09:18:06;5.00;;;2.35;;
22131;SDS011;11232;51.748;19.390;2023-05-09T09:20:34;5.82;;;2.58;;
22131;SDS011;11232;51.748;19.390;2023-05-09T09:23:00;3.78;;;2.63;;
22131;SDS011;11232;51.748;19.390;2023-05-09T09:25:29;3.90;;;2.00;;
22131;SDS011;11232;51.748;19.390;2023-05-09T09:27:55;2.88;;;2.05;;
22131;SDS011;11232;51.748;19.390;2023-05-09T09:30:24;3.28;;;2.53;;
22131;SDS011;11232;51.748;19.390;2023-05-09T09:32:50;7.07;;;2.30;;
22131;SDS011;11232;51.748;19.390;2023-05-09T09:35:16;2.85;;;1.90;;
22131;SDS011;11232;51.748;19.390;2023-05-09T09:37:44;3.83;;;2.03;;
22131;SDS011;11232;51.748;19.390;2023-05-09T09:40:11;5.43;;;2.40;;
22131;SDS011;11232;51.748;19.390;2023-05-09T09:42:47;4.65;;;2.40;;
22131;SDS011;11232;51.748;19.390;2023-05-09T09:45:19;6.35;;;2.10;;
22131;SDS011;11232;51.748;19.390;2023-05-09T09:47:46;6.15;;;2.45;;
22131;SDS011;11232;51.748;19.390;2023-05-09T09:50:13;2.40;;;2.13;;
22131;SDS011;11232;51.748;19.390;2023-05-09T09:52:49;9.27;;;2.35;;
22131;SDS011;11232;51.748;19.390;2023-05-09T09:55:16;4.10;;;2.25;;
22131;SDS011;11232;51.748;19.390;2023-05-09T09:57:42;6.63;;;4.35;;
22131;SDS011;11232;51.748;19.390;2023-05-09T10:00:10;3.95;;;2.58;;
22131;SDS011;11232;51.748;19.390;2023-05-09T10:05:32;3.58;;;2.67;;
22131;SDS011;11232;51.748;19.390;2023-05-09T10:08:02;4.55;;;2.50;;
22131;SDS011;11232;51.748;19.390;2023-05-09T10:10:29;4.20;;;2.63;;
22131;SDS011;11232;51.748;19.390;2023-05-09T10:12:57;5.68;;;2.10;;
22131;SDS011;11232;51.748;19.390;2023-05-09T10:15:23;2.55;;;2.30;;
22131;SDS011;11232;51.748;19.390;2023-05-09T10:17:52;4.32;;;2.40;;
22131;SDS011;11232;51.748;19.390;2023-05-09T10:20:22;7.50;;;2.30;;
22131;SDS011;11232;51.748;19.390;2023-05-09T10:22:49;3.13;;;2.80;;
22131;SDS011;11232;51.748;19.390;2023-05-09T10:25:21;4.60;;;2.67;;
22131;SDS011;11232;51.748;19.390;2023-05-09T10:27:50;3.58;;;2.40;;
22131;SDS011;11232;51.748;19.390;2023-05-09T10:30:27;2.83;;;2.47;;
22131;SDS011;11232;51.748;19.390;2023-05-09T10:32:55;3.53;;;2.50;;
22131;SDS011;11232;51.748;19.390;2023-05-09T10:35:27;2.72;;;2.40;;
22131;SDS011;11232;51.748;19.390;2023-05-09T10:37:54;4.28;;;2.53;;
22131;SDS011;11232;51.748;19.390;2023-05-09T10:40:21;4.82;;;2.17;;
22131;SDS011;11232;51.748;19.390;2023-05-09T10:42:48;4.00;;;2.40;;
22131;SDS011;11232;51.748;19.390;2023-05-09T10:45:14;4.53;;;2.72;;
22131;SDS011;11232;51.748;19.390;2023-05-09T10:47:40;3.90;;;2.38;;
22131;SDS011;11232;51.748;19.390;2023-05-09T10:50:07;2.63;;;2.28;;
22131;SDS011;11232;51.748;19.390;2023-05-09T10:52:33;3.72;;;2.50;;
22131;SDS011;11232;51.748;19.390;2023-05-09T10:54:59;3.80;;;2.30;;
22131;SDS011;11232;51.748;19.390;2023-05-09T10:57:27;3.13;;;2.15;;
22131;SDS011;11232;51.748;19.390;2023-05-09T10:59:53;5.55;;;2.17;;
22131;SDS011;11232;51.748;19.390;2023-05-09T11:02:20;4.43;;;2.13;;
22131;SDS011;11232;51.748;19.390;2023-05-09T11:05:38;3.03;;;2.40;;
22131;SDS011;11232;51.748;19.390;2023-05-09T11:07:39;4.97;;;2.22;;
22131;SDS011;11232;51.748;19.390;2023-05-09T11:10:09;3.13;;;1.95;;
22131;SDS011;11232;51.748;19.390;2023-05-09T11:12:57;2.47;;;2.25;;
22131;SDS011;11232;51.748;19.390;2023-05-09T11:15:21;2.90;;;2.33;;
22131;SDS011;11232;51.748;19.390;2023-05-09T11:18:03;2.92;;;2.22;;
22131;SDS011;11232;51.748;19.390;2023-05-09T11:20:31;5.07;;;2.10;;
22131;SDS011;11232;51.748;19.390;2023-05-09T11:22:58;4.75;;;2.25;;
22131;SDS011;11232;51.748;19.390;2023-05-09T11:25:24;3.55;;;2.35;;
22131;SDS011;11232;51.748;19.390;2023-05-09T11:27:57;2.72;;;2.25;;
22131;SDS011;11232;51.748;19.390;2023-05-09T11:30:23;2.40;;;2.00;;
22131;SDS011;11232;51.748;19.390;2023-05-09T11:32:59;2.28;;;1.98;;
22131;SDS011;11232;51.748;19.390;2023-05-09T11:35:26;3.40;;;2.13;;
22131;SDS011;11232;51.748;19.390;2023-05-09T11:37:58;6.38;;;2.42;;
22131;SDS011;11232;51.748;19.390;2023-05-09T11:40:24;4.57;;;2.78;;
22131;SDS011;11232;51.748;19.390;2023-05-09T11:42:52;3.85;;;2.22;;
22131;SDS011;11232;51.748;19.390;2023-05-09T11:45:19;3.80;;;1.92;;
22131;SDS011;11232;51.748;19.390;2023-05-09T11:47:45;3.85;;;2.20;;
22131;SDS011;11232;51.748;19.390;2023-05-09T11:50:12;4.97;;;2.47;;
22131;SDS011;11232;51.748;19.390;2023-05-09T11:52:38;10.43;;;3.88;;
22131;SDS011;11232;51.748;19.390;2023-05-09T11:55:09;9.13;;;2.72;;
22131;SDS011;11232;51.748;19.390;2023-05-09T11:57:49;5.80;;;2.30;;
22131;SDS011;11232;51.748;19.390;2023-05-09T12:00:19;3.45;;;2.30;;
22131;SDS011;11232;51.748;19.390;2023-05-09T12:02:46;3.58;;;2.30;;
22131;SDS011;11232;51.748;19.390;2023-05-09T12:05:16;2.30;;;2.10;;
22131;SDS011;11232;51.748;19.390;2023-05-09T12:07:42;6.18;;;2.38;;
22131;SDS011;11232;51.748;19.390;2023-05-09T12:10:10;4.18;;;2.28;;
22131;SDS011;11232;51.748;19.390;2023-05-09T12:12:41;2.28;;;2.05;;
22131;SDS011;11232;51.748;19.390;2023-05-09T12:15:07;4.97;;;2.55;;
22131;SDS011;11232;51.748;19.390;2023-05-09T12:17:34;3.00;;;2.30;;
22131;SDS011;11232;51.748;19.390;2023-05-09T12:20:00;5.53;;;2.38;;
22131;SDS011;11232;51.748;19.390;2023-05-09T12:22:28;6.53;;;2.40;;
22131;SDS011;11232;51.748;19.390;2023-05-09T12:24:54;3.30;;;2.15;;
22131;SDS011;11232;51.748;19.390;2023-05-09T12:27:21;3.03;;;2.00;;
22131;SDS011;11232;51.748;19.390;2023-05-09T12:29:47;4.43;;;2.40;;
22131;SDS011;11232;51.748;19.390;2023-05-09T12:32:16;4.13;;;2.38;;
22131;SDS011;11232;51.748;19.390;2023-05-09T12:34:42;4.63;;;2.22;;
22131;SDS011;11232;51.748;19.390;2023-05-09T12:37:18;3.53;;;2.10;;
22131;SDS011;11232;51.748;19.390;2023-05-09T12:40:01;11.73;;;2.55;;
22131;SDS011;11232;51.748;19.390;2023-05-09T12:42:32;2.60;;;2.30;;
22131;SDS011;11232;51.748;19.390;2023-05-09T12:44:59;2.65;;;2.35;;
22131;SDS011;11232;51.748;19.390;2023-05-09T12:47:26;5.25;;;2.47;;
22131;SDS011;11232;51.748;19.390;2023-05-09T12:49:56;3.40;;;2.22;;
22131;SDS011;11232;51.748;19.390;2023-05-09T12:52:22;5.10;;;2.35;;
22131;SDS011;11232;51.748;19.390;2023-05-09T12:54:48;3.45;;;2.20;;
22131;SDS011;11232;51.748;19.390;2023-05-09T12:57:20;4.00;;;2.50;;
22131;SDS011;11232;51.748;19.390;2023-05-09T12:59:47;3.60;;;2.35;;
22131;SDS011;11232;51.748;19.390;2023-05-09T13:02:13;6.25;;;2.63;;
22131;SDS011;11232;51.748;19.390;2023-05-09T13:04:39;5.40;;;2.67;;
22131;SDS011;11232;51.748;19.390;2023-05-09T13:07:07;4.63;;;2.53;;
22131;SDS011;11232;51.748;19.390;2023-05-09T13:09:34;5.70;;;2.60;;
22131;SDS011;11232;51.748;19.390;2023-05-09T13:12:01;3.55;;;2.38;;
22131;SDS011;11232;51.748;19.390;2023-05-09T13:14:28;6.30;;;2.63;;
22131;SDS011;11232;51.748;19.390;2023-05-09T13:16:54;3.25;;;2.65;;
22131;SDS011;11232;51.748;19.390;2023-05-09T13:19:20;9.30;;;2.85;;
22131;SDS011;11232;51.748;19.390;2023-05-09T13:21:46;5.95;;;2.58;;
22131;SDS011;11232;51.748;19.390;2023-05-09T13:24:12;5.93;;;2.30;;
22131;SDS011;11232;51.748;19.390;2023-05-09T13:26:38;2.65;;;2.17;;
22131;SDS011;11232;51.748;19.390;2023-05-09T13:29:04;3.08;;;2.42;;
22131;SDS011;11232;51.748;19.390;2023-05-09T13:31:30;3.15;;;2.60;;
22131;SDS011;11232;51.748;19.390;2023-05-09T13:33:56;3.00;;;2.70;;
22131;SDS011;11232;51.748;19.390;2023-05-09T13:36:22;2.92;;;2.40;;
22131;SDS011;11232;51.748;19.390;2023-05-09T13:38:48;3.63;;;3.13;;
22131;SDS011;11232;51.748;19.390;2023-05-09T13:41:14;3.53;;;2.08;;
22131;SDS011;11232;51.748;19.390;2023-05-09T13:43:44;4.85;;;2.50;;
22131;SDS011;11232;51.748;19.390;2023-05-09T13:46:10;3.83;;;2.40;;
22131;SDS011;11232;51.748;19.390;2023-05-09T13:48:37;4.25;;;2.33;;
22131;SDS011;11232;51.748;19.390;2023-05-09T13:51:03;5.63;;;2.30;;
22131;SDS011;11232;51.748;19.390;2023-05-09T13:53:31;6.15;;;2.40;;
22131;SDS011;11232;51.748;19.390;2023-05-09T13:55:57;2.97;;;2.38;;
22131;SDS011;11232;51.748;19.390;2023-05-09T13:58:23;3.10;;;2.45;;
22131;SDS011;11232;51.748;19.390;2023-05-09T14:00:49;3.55;;;2.30;;
22131;SDS011;11232;51.748;19.390;2023-05-09T14:03:15;5.40;;;2.65;;
22131;SDS011;11232;51.748;19.390;2023-05-09T14:05:41;10.80;;;2.35;;
22131;SDS011;11232;51.748;19.390;2023-05-09T14:08:07;3.67;;;2.15;;
22131;SDS011;11232;51.748;19.390;2023-05-09T14:10:33;4.85;;;2.45;;
22131;SDS011;11232;51.748;19.390;2023-05-09T14:13:02;4.47;;;2.42;;
22131;SDS011;11232;51.748;19.390;2023-05-09T14:15:29;4.22;;;2.35;;
22131;SDS011;11232;51.748;19.390;2023-05-09T14:17:55;4.85;;;2.40;;
22131;SDS011;11232;51.748;19.390;2023-05-09T14:20:21;8.63;;;2.58;;
22131;SDS011;11232;51.748;19.390;2023-05-09T14:22:47;6.65;;;2.70;;
22131;SDS011;11232;51.748;19.390;2023-05-09T14:25:13;4.95;;;2.90;;
22131;SDS011;11232;51.748;19.390;2023-05-09T14:27:38;3.42;;;2.17;;
22131;SDS011;11232;51.748;19.390;2023-05-09T14:30:05;9.77;;;2.78;;
22131;SDS011;11232;51.748;19.390;2023-05-09T14:32:31;4.60;;;2.25;;
22131;SDS011;11232;51.748;19.390;2023-05-09T14:34:57;6.30;;;2.92;;
22131;SDS011;11232;51.748;19.390;2023-05-09T14:37:23;7.22;;;1.98;;
22131;SDS011;11232;51.748;19.390;2023-05-09T14:39:49;3.17;;;2.55;;
22131;SDS011;11232;51.748;19.390;2023-05-09T14:42:15;6.18;;;2.70;;